createdAt,value
2022-12-02T00:01:45.646Z,95062.63
2022-12-02T00:04:21.922Z,95050.03
2022-12-02T00:06:50.367Z,95047.69
2022-12-02T00:09:23.578Z,95047.03
2022-12-02T00:11:51.385Z,95050.16
2022-12-02T00:14:24.446Z,95055.34
2022-12-02T00:16:52.823Z,95044.59
2022-12-02T00:19:20.895Z,95038.78
2022-12-02T00:21:49.961Z,95045.38
2022-12-02T00:24:17.754Z,95044.59
2022-12-02T00:26:45.582Z,95043.00
2022-12-02T00:29:13.463Z,95047.81
2022-12-02T00:31:42.578Z,95037.81
2022-12-02T00:34:10.345Z,95044.22
2022-12-02T00:36:38.111Z,95037.56
2022-12-02T00:39:05.818Z,95032.84
2022-12-02T00:41:33.507Z,95031.81
2022-12-02T00:44:18.840Z,95032.19
2022-12-02T00:46:47.917Z,95031.28
2022-12-02T00:49:17.433Z,95027.97
2022-12-02T00:51:45.743Z,95026.69
2022-12-02T00:54:14.069Z,95021.16
2022-12-02T00:56:42.217Z,95026.56
2022-12-02T00:59:09.915Z,95028.28
2022-12-02T01:01:38.063Z,95027.72
2022-12-02T01:04:07.264Z,95030.66
2022-12-02T01:06:34.925Z,95027.97
2022-12-02T01:09:02.632Z,95027.59
2022-12-02T01:11:30.310Z,95025.28
2022-12-02T01:13:57.986Z,95022.59
2022-12-02T01:16:25.603Z,95025.47
2022-12-02T01:18:53.352Z,95023.63
2022-12-02T01:21:23.340Z,95022.22
2022-12-02T01:23:51.275Z,95016.47
2022-12-02T01:26:18.960Z,95016.06
2022-12-02T01:28:46.648Z,95015.88
2022-12-02T01:31:16.056Z,95011.34
2022-12-02T01:33:44.156Z,95010.72
2022-12-02T01:36:11.941Z,95011.34
2022-12-02T01:38:40.974Z,95008.66
2022-12-02T01:41:08.815Z,95006.97
2022-12-02T01:43:36.508Z,95010.50
2022-12-02T01:46:04.314Z,95005.97
2022-12-02T01:48:32.127Z,95006.78
2022-12-02T01:51:00.112Z,95001.22
2022-12-02T01:53:28.007Z,95009.28
2022-12-02T01:55:57.391Z,95006.97
2022-12-02T01:58:28.488Z,95004.28
2022-12-02T02:00:57.287Z,95002.25
2022-12-02T02:03:25.385Z,95004.72
2022-12-02T02:05:53.088Z,95004.94
2022-12-02T02:08:20.835Z,95005.56
2022-12-02T02:10:49.097Z,94998.53
2022-12-02T02:13:18.593Z,94999.56
2022-12-02T02:15:46.995Z,94994.78
2022-12-02T02:18:16.675Z,94994.78
2022-12-02T02:20:44.403Z,94993.94
2022-12-02T02:23:20.355Z,94984.03
2022-12-02T02:25:49.721Z,94986.91
2022-12-02T02:28:17.396Z,94990.41
2022-12-02T02:30:45.413Z,94981.53
2022-12-02T02:33:14.637Z,94987.28
2022-12-02T02:35:43.505Z,94981.53
2022-12-02T02:38:12.746Z,94984.66
2022-12-02T02:40:42.366Z,94981.59
2022-12-02T02:43:10.595Z,94982.41
2022-12-02T02:45:39.853Z,94979.47
2022-12-02T02:48:09.881Z,94976.16
2022-12-02T02:50:39.324Z,94975.34
2022-12-02T02:53:07.967Z,94976.56
2022-12-02T02:55:35.962Z,94978.22
2022-12-02T02:58:17.152Z,94973.25
2022-12-02T03:00:47.285Z,94972.84
2022-12-02T03:03:16.249Z,94970.78
2022-12-02T03:05:44.272Z,94969.56
2022-12-02T03:08:12.218Z,94969.38
2022-12-02T03:10:40.206Z,94973.28
2022-12-02T03:13:07.906Z,94972.84
2022-12-02T03:15:37.132Z,94964.78
2022-12-02T03:18:05.003Z,94963.38
2022-12-02T03:20:32.691Z,94958.63
2022-12-02T03:23:01.079Z,94964.22
2022-12-02T03:25:29.070Z,94951.84
2022-12-02T03:27:57.171Z,94951.66
2022-12-02T03:30:24.949Z,94949.41
2022-12-02T03:32:54.087Z,94951.03
2022-12-02T03:35:21.891Z,94950.03
2022-12-02T03:37:49.572Z,94952.72
2022-12-02T03:40:17.555Z,94948.59
2022-12-02T03:42:45.408Z,94958.22
2022-12-02T03:45:13.499Z,94950.94
2022-12-02T03:47:41.559Z,94952.91
2022-12-02T03:50:11.878Z,94951.19
2022-12-02T03:52:40.075Z,94941.22
2022-12-02T03:55:08.768Z,94940.00
2022-12-02T03:57:36.825Z,94937.78
2022-12-02T04:00:10.003Z,94942.94
2022-12-02T04:02:41.853Z,94935.91
2022-12-02T04:05:11.176Z,94939.59
2022-12-02T04:07:39.060Z,94941.28
2022-12-02T04:10:08.248Z,94935.47
2022-12-02T04:12:35.927Z,94938.72
2022-12-02T04:15:03.985Z,94930.44
2022-12-02T04:17:31.592Z,94927.13
2022-12-02T04:19:59.228Z,94937.34
2022-12-02T04:22:28.271Z,94920.97
2022-12-02T04:24:58.793Z,94921.19
2022-12-02T04:27:26.887Z,94920.97
2022-12-02T04:29:54.625Z,94921.81
2022-12-02T04:32:22.357Z,94917.16
2022-12-02T04:34:50.425Z,94915.72
2022-12-02T04:37:18.273Z,94912.66
2022-12-02T04:39:47.286Z,94918.94
2022-12-02T04:42:14.988Z,94918.94
2022-12-02T04:44:42.653Z,94923.81
2022-12-02T04:47:10.413Z,94919.94
2022-12-02T04:49:38.122Z,94919.13
2022-12-02T04:52:05.967Z,94916.88
2022-12-02T04:54:33.619Z,94918.97
2022-12-02T04:57:02.658Z,94922.91
2022-12-02T04:59:30.483Z,94919.41
2022-12-02T05:01:58.192Z,94920.63
2022-12-02T05:04:25.925Z,94921.25
2022-12-02T05:06:53.576Z,94921.91
2022-12-02T05:09:21.295Z,94923.50
2022-12-02T05:11:48.933Z,94914.44
2022-12-02T05:14:17.947Z,94915.69
2022-12-02T05:16:45.569Z,94910.31
2022-12-02T05:19:13.233Z,94910.31
2022-12-02T05:21:40.915Z,94920.88
2022-12-02T05:24:09.024Z,94912.03
2022-12-02T05:26:36.644Z,94912.47
2022-12-02T05:29:04.696Z,94907.53
2022-12-02T05:31:33.855Z,94914.38
2022-12-02T05:34:02.401Z,94915.00
2022-12-02T05:36:30.520Z,94916.28
2022-12-02T05:38:58.887Z,94916.25
2022-12-02T05:41:29.862Z,94914.63
2022-12-02T05:44:19.240Z,94910.91
2022-12-02T05:46:49.732Z,94913.84
2022-12-02T05:49:21.906Z,94910.97
2022-12-02T05:51:56.454Z,94916.13
2022-12-02T05:54:25.625Z,94918.81
2022-12-02T14:50:30.133Z,94810.13
2022-12-02T14:53:00.982Z,94811.78
2022-12-02T14:55:28.817Z,94819.00
2022-12-02T14:57:56.476Z,94817.97
2022-12-02T15:00:24.428Z,94813.44
2022-12-02T15:02:52.277Z,94816.13
2022-12-02T15:05:21.660Z,94811.63
2022-12-02T15:07:50.837Z,94822.78
2022-12-02T15:10:18.851Z,94811.66
2022-12-02T15:12:46.561Z,94821.34
2022-12-02T15:15:37.368Z,94810.19
2022-12-02T15:18:01.884Z,94813.91
2022-12-02T15:20:29.619Z,94818.47
2022-12-02T15:22:58.610Z,94828.75
2022-12-02T15:25:26.270Z,94823.97
2022-12-02T15:27:53.923Z,94823.97
2022-12-02T15:30:21.768Z,94821.69
2022-12-02T15:32:49.491Z,94823.34
2022-12-02T15:35:17.382Z,94831.41
2022-12-02T15:37:45.058Z,94825.22
2022-12-02T15:40:14.961Z,94845.25
2022-12-02T15:42:42.625Z,94835.50
2022-12-02T15:45:10.684Z,94835.31
2022-12-02T15:47:38.364Z,94835.75
2022-12-02T15:50:07.135Z,94838.19
2022-12-02T15:52:34.864Z,94842.31
2022-12-02T15:55:02.698Z,94837.97
2022-12-02T15:57:31.891Z,94837.16
2022-12-02T15:59:59.623Z,94833.63
2022-12-02T16:02:27.361Z,94829.06
2022-12-02T16:04:55.050Z,94832.38
2022-12-02T16:07:22.844Z,94835.03
2022-12-02T16:09:50.984Z,94835.88
2022-12-02T16:12:19.050Z,94830.25
2022-12-02T16:14:53.650Z,94831.91
2022-12-02T16:17:22.895Z,94841.63
2022-12-02T16:19:50.580Z,94842.25
2022-12-02T16:22:18.302Z,94843.72
2022-12-02T16:24:46.035Z,94844.53
2022-12-02T16:27:13.703Z,94841.84
2022-12-02T16:29:41.351Z,94838.78
2022-12-02T16:32:13.074Z,94844.34
2022-12-02T16:34:44.489Z,94844.50
2022-12-02T16:37:12.186Z,94854.16
2022-12-02T16:39:39.798Z,94842.16
2022-12-02T16:42:07.501Z,94842.16
2022-12-02T16:44:35.136Z,94845.00
2022-12-02T16:47:03.067Z,94841.69
2022-12-02T16:49:32.161Z,94840.66
2022-12-02T16:51:59.858Z,94846.03
2022-12-02T16:54:27.520Z,94842.31
2022-12-02T16:56:56.411Z,94842.13
2022-12-02T16:59:24.775Z,94849.94
2022-12-02T17:01:52.712Z,94849.94
2022-12-02T17:04:20.703Z,94850.19
2022-12-02T17:06:50.092Z,94840.91
2022-12-02T17:09:18.198Z,94846.72
2022-12-02T17:11:46.095Z,94848.16
2022-12-02T17:14:14.075Z,94840.97
2022-12-02T17:16:41.910Z,94846.09
2022-12-02T17:19:09.620Z,94843.41
2022-12-02T17:21:50.847Z,94844.47
2022-12-02T17:24:19.923Z,94845.47
2022-12-02T17:26:55.494Z,94846.97
2022-12-02T17:29:24.800Z,94842.22
2022-12-02T17:31:54.662Z,94844.69
2022-12-02T17:34:23.664Z,94846.34
2022-12-02T17:36:52.595Z,94848.97
2022-12-02T17:39:23.718Z,94837.97
2022-12-02T17:41:52.469Z,94847.88
2022-12-02T17:44:20.408Z,94842.41
2022-12-02T17:46:48.680Z,94847.59
2022-12-02T17:49:16.731Z,94846.72
2022-12-02T17:52:00.855Z,94851.06
2022-12-02T17:54:34.508Z,94847.94
2022-12-02T18:29:27.360Z,94847.25
2022-12-02T18:31:55.115Z,94840.44
2022-12-02T18:34:23.656Z,94841.88
2022-12-02T18:36:51.388Z,94843.69
2022-12-02T18:39:19.095Z,94842.97
2022-12-02T18:41:46.805Z,94839.47
2022-12-02T18:44:14.511Z,94835.59
2022-12-02T18:46:43.713Z,94833.47
2022-12-02T18:49:11.705Z,94834.44
2022-12-02T18:51:39.366Z,94837.72
2022-12-02T18:54:07.174Z,94830.03
2022-12-02T18:56:34.993Z,94839.34
2022-12-02T18:59:02.719Z,94825.00
2022-12-02T19:01:34.140Z,94835.53
2022-12-02T19:04:03.660Z,94832.25
2022-12-02T19:06:31.478Z,94833.63
2022-12-02T19:08:59.273Z,94828.63
2022-12-02T19:11:26.967Z,94819.38
2022-12-02T19:13:54.810Z,94819.81
2022-12-02T19:16:22.850Z,94822.50
2022-12-02T19:18:50.806Z,94819.88
2022-12-02T19:21:24.517Z,94818.88
2022-12-02T19:23:52.781Z,94822.41
2022-12-02T19:26:21.865Z,94824.00
2022-12-02T19:28:49.539Z,94826.69
2022-12-02T19:31:17.297Z,94823.63
2022-12-02T19:33:45.223Z,94827.97
2022-12-02T19:36:12.973Z,94825.69
2022-12-02T19:38:42.061Z,94823.63
2022-12-02T19:41:09.719Z,94823.22
2022-12-02T19:43:37.472Z,94825.53
2022-12-02T19:46:05.593Z,94819.97
2022-12-02T19:48:33.308Z,94824.47
2022-12-02T19:51:01.125Z,94821.13
2022-12-02T19:53:28.897Z,94829.19
2022-12-02T19:55:57.986Z,94823.38
2022-12-02T19:58:25.866Z,94831.81
2022-12-02T20:00:53.528Z,94830.16
2022-12-02T20:03:21.452Z,94830.16
2022-12-02T20:05:49.175Z,94827.63
2022-12-02T20:08:17.067Z,94836.66
2022-12-02T20:10:44.835Z,94833.38
2022-12-02T20:13:13.803Z,94833.31
2022-12-02T20:15:41.503Z,94836.38
2022-12-02T20:18:09.181Z,94834.91
2022-12-02T20:20:37.023Z,94833.25
2022-12-02T20:23:05.156Z,94835.28
2022-12-02T20:25:32.910Z,94838.59
2022-12-02T20:28:00.691Z,94837.53
2022-12-02T20:30:29.742Z,94834.78
2022-12-02T20:32:57.620Z,94837.66
2022-12-02T20:35:25.419Z,94843.47
2022-12-02T20:37:53.099Z,94843.91
2022-12-02T20:40:21.071Z,94840.16
2022-12-02T20:42:49.312Z,94838.47
2022-12-02T20:45:17.439Z,94841.97
2022-12-02T20:47:46.761Z,94841.53
2022-12-02T20:50:14.387Z,94844.78
2022-12-02T20:52:42.094Z,94844.97
2022-12-02T20:55:11.459Z,94845.94
2022-12-02T20:57:39.237Z,94845.47
2022-12-02T21:00:09.444Z,94842.53
2022-12-02T21:02:37.301Z,94842.91
2022-12-02T21:05:09.815Z,94843.59
2022-12-02T21:07:37.665Z,94847.00
2022-12-02T21:10:06.568Z,94848.03
2022-12-02T21:12:34.326Z,94848.41
2022-12-02T21:15:02.093Z,94848.97
2022-12-02T21:17:30.939Z,94846.47
2022-12-02T21:19:58.810Z,94846.66
2022-12-02T21:22:27.882Z,94841.13
2022-12-02T21:24:55.757Z,94845.13
2022-12-02T21:27:24.634Z,94840.22
2022-12-02T21:29:52.378Z,94840.66
2022-12-02T21:32:20.025Z,94836.78
2022-12-02T21:34:52.422Z,94837.53
2022-12-02T21:37:21.036Z,94837.72
2022-12-02T21:39:50.421Z,94843.53
2022-12-02T21:42:18.164Z,94843.16
2022-12-02T21:44:45.942Z,94838.63
2022-12-02T21:47:13.803Z,94843.97
2022-12-02T21:49:47.443Z,94842.97
2022-12-02T21:52:16.830Z,94839.25
2022-12-02T21:54:44.501Z,94840.75
2022-12-02T21:57:13.548Z,94843.06
2022-12-02T21:59:41.242Z,94832.97
2022-12-02T22:02:09.000Z,94840.47
2022-12-02T22:04:36.700Z,94837.41
2022-12-02T22:07:18.608Z,94846.06
2022-12-02T22:09:47.456Z,94845.44
2022-12-02T22:12:16.754Z,94840.72
2022-12-02T22:14:44.490Z,94833.50
2022-12-02T22:17:12.196Z,94836.81
2022-12-02T22:19:39.954Z,94835.63
2022-12-02T22:22:07.769Z,94836.53
2022-12-02T22:24:35.562Z,94836.16
2022-12-02T22:27:03.411Z,94834.94
2022-12-02T22:29:32.857Z,94837.44
2022-12-02T22:32:01.045Z,94835.22
2022-12-02T22:34:28.924Z,94841.19
2022-12-02T22:36:56.776Z,94833.16
2022-12-02T22:39:26.319Z,94836.28
2022-12-02T22:41:54.415Z,94836.47
2022-12-02T22:44:22.126Z,94838.34
2022-12-02T22:46:51.197Z,94835.66
2022-12-02T22:49:19.072Z,94825.56
2022-12-02T22:51:47.174Z,94830.75
2022-12-02T22:54:14.939Z,94830.75
2022-12-02T22:56:42.622Z,94823.13
2022-12-02T22:59:10.518Z,94823.13
2022-12-02T23:01:38.268Z,94827.06
2022-12-02T23:04:07.541Z,94830.94
2022-12-02T23:06:35.439Z,94827.88
2022-12-02T23:09:03.090Z,94833.88
2022-12-02T23:11:30.893Z,94832.22
2022-12-02T23:13:58.639Z,94830.16
2022-12-02T23:16:28.515Z,94830.81
2022-12-02T23:18:56.295Z,94833.03
2022-12-02T23:21:25.433Z,94833.88
2022-12-02T23:23:53.239Z,94837.31
2022-12-02T23:26:21.088Z,94824.75
2022-12-02T23:28:48.833Z,94830.47
2022-12-02T23:31:16.703Z,94822.25
2022-12-02T23:33:44.462Z,94832.97
2022-12-02T23:36:12.135Z,94829.28
2022-12-02T23:38:41.258Z,94834.75
2022-12-02T23:41:09.023Z,94836.16
2022-12-02T23:43:36.716Z,94826.66
2022-12-02T23:46:04.497Z,94824.78
2022-12-02T23:48:32.247Z,94824.97
2022-12-02T23:50:59.999Z,94815.06
2022-12-02T23:53:27.826Z,94824.97
2022-12-02T23:55:56.882Z,94820.06
2022-12-02T23:58:24.613Z,94817.00
